sensor_id;sensor_type;location;lat;lon;timestamp;pressure;altitude;pressure_sealevel;temperature
71564;BMP180;59391;52.504;13.438;2023-08-06T00:02:23;100470.00;;;22.50
71564;BMP180;59391;52.504;13.438;2023-08-06T00:04:49;100472.00;;;22.50
71564;BMP180;59391;52.504;13.438;2023-08-06T00:07:14;100473.00;;;22.50
71564;BMP180;59391;52.504;13.438;2023-08-06T00:09:40;100470.00;;;22.50
71564;BMP180;59391;52.504;13.438;2023-08-06T00:12:06;100470.00;;;22.50
71564;BMP180;59391;52.504;13.438;2023-08-06T00:14:32;100470.00;;;22.50
71564;BMP180;59391;52.504;13.438;2023-08-06T00:16:57;100470.00;;;22.50
71564;BMP180;59391;52.504;13.438;2023-08-06T00:19:23;100455.00;;;22.50
71564;BMP180;59391;52.504;13.438;2023-08-06T00:21:49;100447.00;;;22.50
71564;BMP180;59391;52.504;13.438;2023-08-06T00:24:14;100454.00;;;22.50
71564;BMP180;59391;52.504;13.438;2023-08-06T00:26:40;100449.00;;;22.50
71564;BMP180;59391;52.504;13.438;2023-08-06T00:29:05;100446.00;;;22.50
71564;BMP180;59391;52.504;13.438;2023-08-06T00:31:31;100449.00;;;22.40
71564;BMP180;59391;52.504;13.438;2023-08-06T00:33:57;100436.00;;;22.40
71564;BMP180;59391;52.504;13.438;2023-08-06T00:36:22;100440.00;;;22.40
71564;BMP180;59391;52.504;13.438;2023-08-06T00:38:48;100448.00;;;22.40
71564;BMP180;59391;52.504;13.438;2023-08-06T00:41:14;100443.00;;;22.30
71564;BMP180;59391;52.504;13.438;2023-08-06T00:43:39;100439.00;;;22.30
71564;BMP180;59391;52.504;13.438;2023-08-06T00:46:05;100433.00;;;22.30
71564;BMP180;59391;52.504;13.438;2023-08-06T00:48:31;100431.00;;;22.20
71564;BMP180;59391;52.504;13.438;2023-08-06T00:50:57;100432.00;;;22.20
71564;BMP180;59391;52.504;13.438;2023-08-06T00:53:23;100436.00;;;22.20
71564;BMP180;59391;52.504;13.438;2023-08-06T00:55:50;100434.00;;;22.20
71564;BMP180;59391;52.504;13.438;2023-08-06T00:58:16;100426.00;;;22.10
71564;BMP180;59391;52.504;13.438;2023-08-06T01:00:42;100438.00;;;22.10
71564;BMP180;59391;52.504;13.438;2023-08-06T01:03:08;100433.00;;;22.10
71564;BMP180;59391;52.504;13.438;2023-08-06T01:05:34;100429.00;;;22.10
71564;BMP180;59391;52.504;13.438;2023-08-06T01:13:50;100428.00;;;21.90
71564;BMP180;59391;52.504;13.438;2023-08-06T01:16:21;100433.00;;;21.90
71564;BMP180;59391;52.504;13.438;2023-08-06T01:18:49;100425.00;;;21.90
71564;BMP180;59391;52.504;13.438;2023-08-06T01:21:16;100436.00;;;21.80
71564;BMP180;59391;52.504;13.438;2023-08-06T01:23:43;100429.00;;;21.80
71564;BMP180;59391;52.504;13.438;2023-08-06T01:26:22;100422.00;;;21.80
71564;BMP180;59391;52.504;13.438;2023-08-06T01:29:10;100407.00;;;21.80
71564;BMP180;59391;52.504;13.438;2023-08-06T01:31:39;100411.00;;;21.80
71564;BMP180;59391;52.504;13.438;2023-08-06T01:34:15;100409.00;;;21.80
71564;BMP180;59391;52.504;13.438;2023-08-06T01:36:42;100401.00;;;21.70
71564;BMP180;59391;52.504;13.438;2023-08-06T01:39:08;100398.00;;;21.70
71564;BMP180;59391;52.504;13.438;2023-08-06T01:41:33;100403.00;;;21.70
71564;BMP180;59391;52.504;13.438;2023-08-06T01:43:59;100390.00;;;21.70
71564;BMP180;59391;52.504;13.438;2023-08-06T01:46:25;100390.00;;;21.70
71564;BMP180;59391;52.504;13.438;2023-08-06T01:48:50;100384.00;;;21.70
71564;BMP180;59391;52.504;13.438;2023-08-06T01:51:16;100382.00;;;21.60
71564;BMP180;59391;52.504;13.438;2023-08-06T01:53:41;100371.00;;;21.60
71564;BMP180;59391;52.504;13.438;2023-08-06T01:56:07;100378.00;;;21.60
71564;BMP180;59391;52.504;13.438;2023-08-06T01:58:33;100363.00;;;21.50
71564;BMP180;59391;52.504;13.438;2023-08-06T02:00:58;100365.00;;;21.50
71564;BMP180;59391;52.504;13.438;2023-08-06T02:03:24;100368.00;;;21.50
71564;BMP180;59391;52.504;13.438;2023-08-06T02:05:50;100358.00;;;21.40
71564;BMP180;59391;52.504;13.438;2023-08-06T02:08:15;100357.00;;;21.40
71564;BMP180;59391;52.504;13.438;2023-08-06T02:10:41;100356.00;;;21.40
71564;BMP180;59391;52.504;13.438;2023-08-06T02:13:07;100357.00;;;21.40
71564;BMP180;59391;52.504;13.438;2023-08-06T02:15:32;100365.00;;;21.40
71564;BMP180;59391;52.504;13.438;2023-08-06T02:17:58;100342.00;;;21.40
71564;BMP180;59391;52.504;13.438;2023-08-06T02:20:23;100352.00;;;21.40
71564;BMP180;59391;52.504;13.438;2023-08-06T02:22:49;100364.00;;;21.40
71564;BMP180;59391;52.504;13.438;2023-08-06T02:25:15;100355.00;;;21.40
71564;BMP180;59391;52.504;13.438;2023-08-06T02:27:40;100356.00;;;21.40
71564;BMP180;59391;52.504;13.438;2023-08-06T02:30:06;100353.00;;;21.40
71564;BMP180;59391;52.504;13.438;2023-08-06T02:32:32;100341.00;;;21.40
71564;BMP180;59391;52.504;13.438;2023-08-06T02:35:01;100349.00;;;21.40
71564;BMP180;59391;52.504;13.438;2023-08-06T02:37:27;100340.00;;;21.40
71564;BMP180;59391;52.504;13.438;2023-08-06T02:39:53;100340.00;;;21.40
71564;BMP180;59391;52.504;13.438;2023-08-06T02:42:18;100325.00;;;21.30
71564;BMP180;59391;52.504;13.438;2023-08-06T02:44:44;100333.00;;;21.30
71564;BMP180;59391;52.504;13.438;2023-08-06T02:47:09;100326.00;;;21.30
71564;BMP180;59391;52.504;13.438;2023-08-06T02:49:35;100337.00;;;21.20
71564;BMP180;59391;52.504;13.438;2023-08-06T02:52:01;100320.00;;;21.20
71564;BMP180;59391;52.504;13.438;2023-08-06T02:54:26;100321.00;;;21.20
71564;BMP180;59391;52.504;13.438;2023-08-06T02:56:52;100320.00;;;21.10
71564;BMP180;59391;52.504;13.438;2023-08-06T02:59:18;100322.00;;;21.10
71564;BMP180;59391;52.504;13.438;2023-08-06T03:01:43;100320.00;;;21.10
71564;BMP180;59391;52.504;13.438;2023-08-06T03:04:09;100324.00;;;21.00
71564;BMP180;59391;52.504;13.438;2023-08-06T03:06:34;100318.00;;;21.00
71564;BMP180;59391;52.504;13.438;2023-08-06T03:09:00;100325.00;;;20.90
71564;BMP180;59391;52.504;13.438;2023-08-06T03:11:25;100322.00;;;20.90
71564;BMP180;59391;52.504;13.438;2023-08-06T03:13:51;100312.00;;;20.90
71564;BMP180;59391;52.504;13.438;2023-08-06T03:16:17;100310.00;;;20.90
71564;BMP180;59391;52.504;13.438;2023-08-06T03:18:42;100313.00;;;20.80
71564;BMP180;59391;52.504;13.438;2023-08-06T03:21:08;100314.00;;;20.80
71564;BMP180;59391;52.504;13.438;2023-08-06T03:23:33;100306.00;;;20.80
71564;BMP180;59391;52.504;13.438;2023-08-06T03:26:03;100302.00;;;20.80
71564;BMP180;59391;52.504;13.438;2023-08-06T03:28:29;100295.00;;;20.80
71564;BMP180;59391;52.504;13.438;2023-08-06T03:31:03;100296.00;;;20.70
71564;BMP180;59391;52.504;13.438;2023-08-06T03:33:29;100290.00;;;20.70
71564;BMP180;59391;52.504;13.438;2023-08-06T03:35:55;100273.00;;;20.70
71564;BMP180;59391;52.504;13.438;2023-08-06T03:38:20;100281.00;;;20.70
71564;BMP180;59391;52.504;13.438;2023-08-06T03:40:46;100270.00;;;20.70
71564;BMP180;59391;52.504;13.438;2023-08-06T03:43:12;100270.00;;;20.70
71564;BMP180;59391;52.504;13.438;2023-08-06T03:45:38;100264.00;;;20.60
71564;BMP180;59391;52.504;13.438;2023-08-06T03:48:04;100258.00;;;20.60
71564;BMP180;59391;52.504;13.438;2023-08-06T03:50:29;100266.00;;;20.60
71564;BMP180;59391;52.504;13.438;2023-08-06T03:52:55;100266.00;;;20.60
71564;BMP180;59391;52.504;13.438;2023-08-06T03:55:21;100248.00;;;20.60
71564;BMP180;59391;52.504;13.438;2023-08-06T03:57:47;100260.00;;;20.50
71564;BMP180;59391;52.504;13.438;2023-08-06T04:00:13;100251.00;;;20.50
71564;BMP180;59391;52.504;13.438;2023-08-06T04:02:38;100249.00;;;20.50
71564;BMP180;59391;52.504;13.438;2023-08-06T04:05:05;100254.00;;;20.50
71564;BMP180;59391;52.504;13.438;2023-08-06T04:07:30;100249.00;;;20.50
71564;BMP180;59391;52.504;13.438;2023-08-06T04:10:02;100241.00;;;20.50
71564;BMP180;59391;52.504;13.438;2023-08-06T04:12:28;100239.00;;;20.50
71564;BMP180;59391;52.504;13.438;2023-08-06T04:14:56;100221.00;;;20.50
71564;BMP180;59391;52.504;13.438;2023-08-06T04:17:22;100241.00;;;20.50
71564;BMP180;59391;52.504;13.438;2023-08-06T04:19:53;100233.00;;;20.50
71564;BMP180;59391;52.504;13.438;2023-08-06T04:22:21;100232.00;;;20.50
71564;BMP180;59391;52.504;13.438;2023-08-06T04:24:47;100238.00;;;20.60
71564;BMP180;59391;52.504;13.438;2023-08-06T04:27:14;100231.00;;;20.60
71564;BMP180;59391;52.504;13.438;2023-08-06T04:29:41;100216.00;;;20.60
71564;BMP180;59391;52.504;13.438;2023-08-06T04:32:08;100220.00;;;20.60
71564;BMP180;59391;52.504;13.438;2023-08-06T04:34:36;100225.00;;;20.60
71564;BMP180;59391;52.504;13.438;2023-08-06T04:37:02;100213.00;;;20.70
71564;BMP180;59391;52.504;13.438;2023-08-06T04:39:29;100218.00;;;20.60
71564;BMP180;59391;52.504;13.438;2023-08-06T04:41:56;100208.00;;;20.60
71564;BMP180;59391;52.504;13.438;2023-08-06T04:44:23;100193.00;;;20.60
71564;BMP180;59391;52.504;13.438;2023-08-06T04:46:48;100202.00;;;20.60
71564;BMP180;59391;52.504;13.438;2023-08-06T04:49:17;100199.00;;;20.60
71564;BMP180;59391;52.504;13.438;2023-08-06T04:51:43;100190.00;;;20.60
71564;BMP180;59391;52.504;13.438;2023-08-06T04:54:09;100192.00;;;20.50
71564;BMP180;59391;52.504;13.438;2023-08-06T04:56:35;100190.00;;;20.60
71564;BMP180;59391;52.504;13.438;2023-08-06T04:59:00;100185.00;;;20.60
71564;BMP180;59391;52.504;13.438;2023-08-06T05:01:26;100189.00;;;20.60
71564;BMP180;59391;52.504;13.438;2023-08-06T05:03:52;100192.00;;;20.60
71564;BMP180;59391;52.504;13.438;2023-08-06T05:06:17;100191.00;;;20.60
71564;BMP180;59391;52.504;13.438;2023-08-06T05:08:43;100193.00;;;20.70
71564;BMP180;59391;52.504;13.438;2023-08-06T05:11:09;100193.00;;;20.70
71564;BMP180;59391;52.504;13.438;2023-08-06T05:13:35;100174.00;;;20.70
71564;BMP180;59391;52.504;13.438;2023-08-06T05:16:00;100184.00;;;20.70
71564;BMP180;59391;52.504;13.438;2023-08-06T05:18:27;100175.00;;;20.70
71564;BMP180;59391;52.504;13.438;2023-08-06T05:20:53;100163.00;;;20.70
71564;BMP180;59391;52.504;13.438;2023-08-06T05:23:19;100175.00;;;20.70
71564;BMP180;59391;52.504;13.438;2023-08-06T05:25:44;100158.00;;;20.70
71564;BMP180;59391;52.504;13.438;2023-08-06T05:28:10;100163.00;;;20.70
71564;BMP180;59391;52.504;13.438;2023-08-06T05:30:40;100159.00;;;20.70
71564;BMP180;59391;52.504;13.438;2023-08-06T05:33:06;100159.00;;;20.80
71564;BMP180;59391;52.504;13.438;2023-08-06T05:35:31;100152.00;;;20.80
71564;BMP180;59391;52.504;13.438;2023-08-06T05:37:57;100152.00;;;20.80
71564;BMP180;59391;52.504;13.438;2023-08-06T05:40:23;100152.00;;;20.80
71564;BMP180;59391;52.504;13.438;2023-08-06T05:42:53;100154.00;;;20.90
71564;BMP180;59391;52.504;13.438;2023-08-06T05:45:19;100153.00;;;20.90
71564;BMP180;59391;52.504;13.438;2023-08-06T05:47:44;100161.00;;;21.00
71564;BMP180;59391;52.504;13.438;2023-08-06T05:50:10;100148.00;;;21.00
71564;BMP180;59391;52.504;13.438;2023-08-06T05:52:36;100162.00;;;21.00
71564;BMP180;59391;52.504;13.438;2023-08-06T05:55:02;100162.00;;;21.10
71564;BMP180;59391;52.504;13.438;2023-08-06T05:57:28;100147.00;;;21.10
71564;BMP180;59391;52.504;13.438;2023-08-06T05:59:53;100156.00;;;21.10
71564;BMP180;59391;52.504;13.438;2023-08-06T06:02:19;100153.00;;;21.20
71564;BMP180;59391;52.504;13.438;2023-08-06T06:04:48;100145.00;;;21.20
71564;BMP180;59391;52.504;13.438;2023-08-06T06:07:13;100150.00;;;21.20
71564;BMP180;59391;52.504;13.438;2023-08-06T06:09:39;100150.00;;;21.20
71564;BMP180;59391;52.504;13.438;2023-08-06T06:12:06;100150.00;;;21.30
71564;BMP180;59391;52.504;13.438;2023-08-06T06:14:31;100147.00;;;21.30
71564;BMP180;59391;52.504;13.438;2023-08-06T06:16:59;100143.00;;;21.30
71564;BMP180;59391;52.504;13.438;2023-08-06T06:19:25;100129.00;;;21.40
71564;BMP180;59391;52.504;13.438;2023-08-06T06:21:51;100136.00;;;21.40
71564;BMP180;59391;52.504;13.438;2023-08-06T06:24:16;100124.00;;;21.40
71564;BMP180;59391;52.504;13.438;2023-08-06T06:26:42;100131.00;;;21.40
71564;BMP180;59391;52.504;13.438;2023-08-06T06:29:07;100125.00;;;21.40
71564;BMP180;59391;52.504;13.438;2023-08-06T06:31:33;100126.00;;;21.50
71564;BMP180;59391;52.504;13.438;2023-08-06T06:33:59;100128.00;;;21.50
71564;BMP180;59391;52.504;13.438;2023-08-06T06:36:24;100124.00;;;21.50
71564;BMP180;59391;52.504;13.438;2023-08-06T06:38:50;100108.00;;;21.50
71564;BMP180;59391;52.504;13.438;2023-08-06T06:41:16;100109.00;;;21.60
71564;BMP180;59391;52.504;13.438;2023-08-06T06:43:42;100123.00;;;21.60
71564;BMP180;59391;52.504;13.438;2023-08-06T06:46:07;100123.00;;;21.60
71564;BMP180;59391;52.504;13.438;2023-08-06T06:48:33;100115.00;;;21.60
71564;BMP180;59391;52.504;13.438;2023-08-06T06:50:59;100117.00;;;21.60
71564;BMP180;59391;52.504;13.438;2023-08-06T06:53:27;100097.00;;;21.60
71564;BMP180;59391;52.504;13.438;2023-08-06T06:56:03;100110.00;;;21.70
71564;BMP180;59391;52.504;13.438;2023-08-06T06:58:30;100107.00;;;21.70
71564;BMP180;59391;52.504;13.438;2023-08-06T07:00:56;100121.00;;;21.70
71564;BMP180;59391;52.504;13.438;2023-08-06T07:03:24;100130.00;;;21.80
71564;BMP180;59391;52.504;13.438;2023-08-06T07:05:50;100124.00;;;21.80
71564;BMP180;59391;52.504;13.438;2023-08-06T07:08:16;100118.00;;;21.80
71564;BMP180;59391;52.504;13.438;2023-08-06T07:10:42;100125.00;;;21.70
71564;BMP180;59391;52.504;13.438;2023-08-06T07:13:08;100124.00;;;21.90
71564;BMP180;59391;52.504;13.438;2023-08-06T07:15:34;100117.00;;;21.90
71564;BMP180;59391;52.504;13.438;2023-08-06T07:18:00;100121.00;;;21.90
71564;BMP180;59391;52.504;13.438;2023-08-06T07:20:26;100122.00;;;21.90
71564;BMP180;59391;52.504;13.438;2023-08-06T07:22:54;100120.00;;;22.00
71564;BMP180;59391;52.504;13.438;2023-08-06T07:25:20;100124.00;;;22.10
71564;BMP180;59391;52.504;13.438;2023-08-06T07:27:45;100109.00;;;22.10
71564;BMP180;59391;52.504;13.438;2023-08-06T07:30:11;100130.00;;;22.10
71564;BMP180;59391;52.504;13.438;2023-08-06T07:32:37;100116.00;;;22.20
71564;BMP180;59391;52.504;13.438;2023-08-06T07:35:03;100103.00;;;22.20
71564;BMP180;59391;52.504;13.438;2023-08-06T07:37:28;100123.00;;;22.20
71564;BMP180;59391;52.504;13.438;2023-08-06T07:39:55;100119.00;;;22.20
71564;BMP180;59391;52.504;13.438;2023-08-06T07:42:21;100114.00;;;22.20
71564;BMP180;59391;52.504;13.438;2023-08-06T07:44:55;100112.00;;;22.30
71564;BMP180;59391;52.504;13.438;2023-08-06T07:47:22;100124.00;;;22.30
71564;BMP180;59391;52.504;13.438;2023-08-06T07:49:47;100126.00;;;22.30
71564;BMP180;59391;52.504;13.438;2023-08-06T07:52:15;100119.00;;;22.30
71564;BMP180;59391;52.504;13.438;2023-08-06T07:54:41;100122.00;;;22.30
71564;BMP180;59391;52.504;13.438;2023-08-06T07:57:07;100108.00;;;22.30
71564;BMP180;59391;52.504;13.438;2023-08-06T07:59:32;100119.00;;;22.20
71564;BMP180;59391;52.504;13.438;2023-08-06T08:01:58;100126.00;;;22.20
71564;BMP180;59391;52.504;13.438;2023-08-06T08:04:24;100121.00;;;22.20
71564;BMP180;59391;52.504;13.438;2023-08-06T08:06:50;100119.00;;;22.20
71564;BMP180;59391;52.504;13.438;2023-08-06T08:09:15;100118.00;;;22.20
71564;BMP180;59391;52.504;13.438;2023-08-06T08:11:41;100115.00;;;22.20
71564;BMP180;59391;52.504;13.438;2023-08-06T08:14:07;100110.00;;;22.20
71564;BMP180;59391;52.504;13.438;2023-08-06T08:16:33;100105.00;;;22.20
71564;BMP180;59391;52.504;13.438;2023-08-06T08:18:58;100114.00;;;22.10
71564;BMP180;59391;52.504;13.438;2023-08-06T08:21:24;100101.00;;;22.10
71564;BMP180;59391;52.504;13.438;2023-08-06T08:23:50;100106.00;;;22.10
71564;BMP180;59391;52.504;13.438;2023-08-06T08:26:16;100100.00;;;22.00
71564;BMP180;59391;52.504;13.438;2023-08-06T08:28:42;100096.00;;;22.00
71564;BMP180;59391;52.504;13.438;2023-08-06T08:31:11;100097.00;;;22.00
71564;BMP180;59391;52.504;13.438;2023-08-06T08:33:38;100096.00;;;22.00
71564;BMP180;59391;52.504;13.438;2023-08-06T08:36:04;100081.00;;;22.00
71564;BMP180;59391;52.504;13.438;2023-08-06T08:38:29;100084.00;;;22.00
71564;BMP180;59391;52.504;13.438;2023-08-06T08:40:55;100084.00;;;22.10
71564;BMP180;59391;52.504;13.438;2023-08-06T08:43:22;100082.00;;;22.10
71564;BMP180;59391;52.504;13.438;2023-08-06T08:45:51;100073.00;;;22.10
71564;BMP180;59391;52.504;13.438;2023-08-06T08:48:18;100073.00;;;22.20
71564;BMP180;59391;52.504;13.438;2023-08-06T08:50:48;100063.00;;;22.30
71564;BMP180;59391;52.504;13.438;2023-08-06T08:53:16;100062.00;;;22.30
71564;BMP180;59391;52.504;13.438;2023-08-06T08:55:46;100063.00;;;22.40
71564;BMP180;59391;52.504;13.438;2023-08-06T08:58:12;100053.00;;;22.50
71564;BMP180;59391;52.504;13.438;2023-08-06T09:00:41;100058.00;;;22.50
71564;BMP180;59391;52.504;13.438;2023-08-06T09:03:08;100052.00;;;22.50
71564;BMP180;59391;52.504;13.438;2023-08-06T09:05:34;100051.00;;;22.60
71564;BMP180;59391;52.504;13.438;2023-08-06T09:08:03;100042.00;;;22.60
71564;BMP180;59391;52.504;13.438;2023-08-06T09:10:30;100040.00;;;22.60
71564;BMP180;59391;52.504;13.438;2023-08-06T09:12:57;100029.00;;;22.70
71564;BMP180;59391;52.504;13.438;2023-08-06T09:15:25;100024.00;;;22.70
71564;BMP180;59391;52.504;13.438;2023-08-06T09:17:52;100024.00;;;22.70
71564;BMP180;59391;52.504;13.438;2023-08-06T09:20:18;100032.00;;;22.80
71564;BMP180;59391;52.504;13.438;2023-08-06T09:22:44;100027.00;;;22.80
71564;BMP180;59391;52.504;13.438;2023-08-06T09:25:11;100029.00;;;22.80
71564;BMP180;59391;52.504;13.438;2023-08-06T09:27:39;100026.00;;;22.80
71564;BMP180;59391;52.504;13.438;2023-08-06T09:30:07;100017.00;;;22.80
71564;BMP180;59391;52.504;13.438;2023-08-06T09:32:48;100019.00;;;22.80
71564;BMP180;59391;52.504;13.438;2023-08-06T09:35:17;100014.00;;;22.90
71564;BMP180;59391;52.504;13.438;2023-08-06T09:37:44;100015.00;;;22.90
71564;BMP180;59391;52.504;13.438;2023-08-06T09:40:29;100007.00;;;22.90
71564;BMP180;59391;52.504;13.438;2023-08-06T09:42:57;100001.00;;;22.90
71564;BMP180;59391;52.504;13.438;2023-08-06T09:45:28;99999.00;;;22.90
71564;BMP180;59391;52.504;13.438;2023-08-06T09:48:00;99995.00;;;22.90
71564;BMP180;59391;52.504;13.438;2023-08-06T09:50:31;100000.00;;;22.90
71564;BMP180;59391;52.504;13.438;2023-08-06T09:52:58;99992.00;;;22.90
71564;BMP180;59391;52.504;13.438;2023-08-06T09:55:25;99994.00;;;22.90
71564;BMP180;59391;52.504;13.438;2023-08-06T09:57:53;99997.00;;;22.90
71564;BMP180;59391;52.504;13.438;2023-08-06T10:00:19;99994.00;;;23.00
71564;BMP180;59391;52.504;13.438;2023-08-06T10:02:46;99992.00;;;22.90
71564;BMP180;59391;52.504;13.438;2023-08-06T10:05:12;99986.00;;;22.90
71564;BMP180;59391;52.504;13.438;2023-08-06T10:07:43;99980.00;;;22.90
71564;BMP180;59391;52.504;13.438;2023-08-06T10:10:09;99986.00;;;22.80
71564;BMP180;59391;52.504;13.438;2023-08-06T10:12:43;99986.00;;;22.80
71564;BMP180;59391;52.504;13.438;2023-08-06T10:15:14;99982.00;;;22.80
71564;BMP180;59391;52.504;13.438;2023-08-06T10:17:41;99973.00;;;22.90
71564;BMP180;59391;52.504;13.438;2023-08-06T10:20:09;99981.00;;;22.90
71564;BMP180;59391;52.504;13.438;2023-08-06T10:22:35;99981.00;;;22.90
71564;BMP180;59391;52.504;13.438;2023-08-06T10:25:02;99972.00;;;22.90
71564;BMP180;59391;52.504;13.438;2023-08-06T10:30:31;99970.00;;;22.80
71564;BMP180;59391;52.504;13.438;2023-08-06T10:33:03;99976.00;;;22.80
71564;BMP180;59391;52.504;13.438;2023-08-06T10:35:46;99975.00;;;22.80
71564;BMP180;59391;52.504;13.438;2023-08-06T10:38:21;99968.00;;;22.80
71564;BMP180;59391;52.504;13.438;2023-08-06T10:41:02;99974.00;;;22.80
71564;BMP180;59391;52.504;13.438;2023-08-06T10:43:37;99970.00;;;22.70
71564;BMP180;59391;52.504;13.438;2023-08-06T10:46:10;99978.00;;;22.80
71564;BMP180;59391;52.504;13.438;2023-08-06T10:48:41;99969.00;;;22.80
71564;BMP180;59391;52.504;13.438;2023-08-06T10:51:13;99957.00;;;22.70
71564;BMP180;59391;52.504;13.438;2023-08-06T10:53:44;99967.00;;;22.70
71564;BMP180;59391;52.504;13.438;2023-08-06T10:56:19;99956.00;;;22.70
71564;BMP180;59391;52.504;13.438;2023-08-06T10:58:46;99965.00;;;22.70
71564;BMP180;59391;52.504;13.438;2023-08-06T11:01:13;99955.00;;;22.80
71564;BMP180;59391;52.504;13.438;2023-08-06T11:03:39;99948.00;;;22.80
71564;BMP180;59391;52.504;13.438;2023-08-06T11:06:07;99945.00;;;22.70
71564;BMP180;59391;52.504;13.438;2023-08-06T11:08:38;99945.00;;;22.80
71564;BMP180;59391;52.504;13.438;2023-08-06T11:11:15;99942.00;;;22.80
71564;BMP180;59391;52.504;13.438;2023-08-06T11:13:42;99938.00;;;22.80
71564;BMP180;59391;52.504;13.438;2023-08-06T11:16:09;99935.00;;;22.80
71564;BMP180;59391;52.504;13.438;2023-08-06T11:18:35;99938.00;;;22.80
71564;BMP180;59391;52.504;13.438;2023-08-06T11:21:01;99935.00;;;22.90
71564;BMP180;59391;52.504;13.438;2023-08-06T11:23:28;99932.00;;;22.90
71564;BMP180;59391;52.504;13.438;2023-08-06T11:25:57;99925.00;;;22.90
71564;BMP180;59391;52.504;13.438;2023-08-06T11:28:24;99925.00;;;23.00
71564;BMP180;59391;52.504;13.438;2023-08-06T11:30:52;99916.00;;;23.00
71564;BMP180;59391;52.504;13.438;2023-08-06T11:33:22;99911.00;;;23.00
71564;BMP180;59391;52.504;13.438;2023-08-06T11:35:49;99915.00;;;23.00
71564;BMP180;59391;52.504;13.438;2023-08-06T11:38:14;99907.00;;;23.00
71564;BMP180;59391;52.504;13.438;2023-08-06T11:40:47;99905.00;;;23.00
71564;BMP180;59391;52.504;13.438;2023-08-06T11:43:13;99899.00;;;23.00
71564;BMP180;59391;52.504;13.438;2023-08-06T11:45:40;99908.00;;;23.10
71564;BMP180;59391;52.504;13.438;2023-08-06T11:48:07;99903.00;;;23.00
71564;BMP180;59391;52.504;13.438;2023-08-06T11:50:37;99907.00;;;23.10
71564;BMP180;59391;52.504;13.438;2023-08-06T11:53:06;99894.00;;;23.10
71564;BMP180;59391;52.504;13.438;2023-08-06T11:55:33;99894.00;;;23.10
71564;BMP180;59391;52.504;13.438;2023-08-06T11:58:03;99886.00;;;23.10
71564;BMP180;59391;52.504;13.438;2023-08-06T12:00:29;99891.00;;;23.10
71564;BMP180;59391;52.504;13.438;2023-08-06T12:02:56;99890.00;;;23.10
71564;BMP180;59391;52.504;13.438;2023-08-06T12:05:32;99885.00;;;23.20
71564;BMP180;59391;52.504;13.438;2023-08-06T12:08:03;99888.00;;;23.20
71564;BMP180;59391;52.504;13.438;2023-08-06T12:10:31;99890.00;;;23.20
71564;BMP180;59391;52.504;13.438;2023-08-06T12:12:57;99882.00;;;23.20
71564;BMP180;59391;52.504;13.438;2023-08-06T12:15:24;99882.00;;;23.10
71564;BMP180;59391;52.504;13.438;2023-08-06T12:17:50;99879.00;;;23.10
71564;BMP180;59391;52.504;13.438;2023-08-06T12:20:16;99876.00;;;23.10
71564;BMP180;59391;52.504;13.438;2023-08-06T12:22:41;99880.00;;;23.10
71564;BMP180;59391;52.504;13.438;2023-08-06T12:25:10;99878.00;;;23.10
71564;BMP180;59391;52.504;13.438;2023-08-06T12:27:44;99873.00;;;23.10
71564;BMP180;59391;52.504;13.438;2023-08-06T12:30:11;99878.00;;;23.10
71564;BMP180;59391;52.504;13.438;2023-08-06T12:32:38;99877.00;;;23.10
71564;BMP180;59391;52.504;13.438;2023-08-06T12:35:04;99881.00;;;23.10
71564;BMP180;59391;52.504;13.438;2023-08-06T12:37:30;99875.00;;;23.10
71564;BMP180;59391;52.504;13.438;2023-08-06T12:39:56;99871.00;;;23.10
71564;BMP180;59391;52.504;13.438;2023-08-06T12:42:21;99876.00;;;23.00
71564;BMP180;59391;52.504;13.438;2023-08-06T12:44:50;99876.00;;;23.00
71564;BMP180;59391;52.504;13.438;2023-08-06T12:47:17;99873.00;;;23.00
71564;BMP180;59391;52.504;13.438;2023-08-06T12:49:43;99877.00;;;23.00
71564;BMP180;59391;52.504;13.438;2023-08-06T12:52:08;99871.00;;;22.90
71564;BMP180;59391;52.504;13.438;2023-08-06T12:54:35;99880.00;;;22.80
71564;BMP180;59391;52.504;13.438;2023-08-06T12:57:03;99878.00;;;22.80
71564;BMP180;59391;52.504;13.438;2023-08-06T12:59:29;99880.00;;;22.80
71564;BMP180;59391;52.504;13.438;2023-08-06T13:01:54;99863.00;;;22.70
71564;BMP180;59391;52.504;13.438;2023-08-06T13:04:20;99870.00;;;22.80
71564;BMP180;59391;52.504;13.438;2023-08-06T13:06:46;99866.00;;;22.80
71564;BMP180;59391;52.504;13.438;2023-08-06T13:09:13;99870.00;;;22.80
71564;BMP180;59391;52.504;13.438;2023-08-06T13:11:40;99858.00;;;22.80
71564;BMP180;59391;52.504;13.438;2023-08-06T13:14:07;99862.00;;;22.80
71564;BMP180;59391;52.504;13.438;2023-08-06T13:16:35;99861.00;;;22.80
71564;BMP180;59391;52.504;13.438;2023-08-06T13:19:03;99870.00;;;22.80
71564;BMP180;59391;52.504;13.438;2023-08-06T13:21:59;99872.00;;;22.80
71564;BMP180;59391;52.504;13.438;2023-08-06T13:24:24;99870.00;;;22.80
71564;BMP180;59391;52.504;13.438;2023-08-06T13:26:50;99867.00;;;22.80
71564;BMP180;59391;52.504;13.438;2023-08-06T13:29:16;99868.00;;;22.80
71564;BMP180;59391;52.504;13.438;2023-08-06T13:31:41;99866.00;;;22.80
71564;BMP180;59391;52.504;13.438;2023-08-06T13:34:07;99867.00;;;22.90
71564;BMP180;59391;52.504;13.438;2023-08-06T13:36:32;99845.00;;;22.90
71564;BMP180;59391;52.504;13.438;2023-08-06T13:38:58;99863.00;;;22.80
71564;BMP180;59391;52.504;13.438;2023-08-06T13:41:24;99865.00;;;22.80
71564;BMP180;59391;52.504;13.438;2023-08-06T13:43:49;99868.00;;;22.80
71564;BMP180;59391;52.504;13.438;2023-08-06T13:46:15;99865.00;;;22.80
71564;BMP180;59391;52.504;13.438;2023-08-06T13:48:47;99867.00;;;22.80
71564;BMP180;59391;52.504;13.438;2023-08-06T13:51:13;99868.00;;;22.80
71564;BMP180;59391;52.504;13.438;2023-08-06T13:53:42;99854.00;;;22.70
71564;BMP180;59391;52.504;13.438;2023-08-06T13:56:09;99857.00;;;22.70
71564;BMP180;59391;52.504;13.438;2023-08-06T13:58:37;99861.00;;;22.70